Overview Statistics Trail Chart Weather Telemetry Raw packets
 

This is the latest recevied weather packets stored in our database for station/object TONGUE. If no packets are shown the sender has not sent any weather packets the latest 10 day(s).

<< 42 43 44 45 46 >>
Time Temp. Humidity Pressure Rain* Wind** Luminosity Snow
1787771403 17.78° C 76% 0 hPa - - - -
1787770804 17.22° C 79% 0 hPa - - - -
1787770203 18.33° C 71% 0 hPa - - - -
1787769603 18.89° C 69% 0 hPa - - - -
1787769003 18.89° C 69% 0 hPa - - - -
1787768403 18.89° C 70% 0 hPa - - - -
1787767807 18.33° C 71% 0 hPa - - - -
1787767204 18.33° C 74% 0 hPa - - - -
1787766603 18.33° C 73% 0 hPa - - - -
1787766003 17.78° C 73% 0 hPa - - - -
1787765403 17.22° C 77% 0 hPa - - - -
1787764803 17.22° C 79% 0 hPa - - - -
1787764203 17.22° C 82% 0 hPa - - - -
1787763003 16.67° C 80% 0 hPa - - - -
1787762403 17.22° C 80% 0 hPa - - - -
1787761804 16.67° C 83% 0 hPa - - - -
1787761203 17.22° C 83% 0 hPa - - - -
1787760602 16.67° C 84% 0 hPa - - - -
1787760003 16.11° C 86% 0 hPa - - - -
1787759403 16.11° C 89% 0 hPa - - - -
1787758803 16.11° C 89% 0 hPa - - - -
1787758203 15.56° C 91% 0 hPa - - - -
1787757603 15.56° C 93% 0 hPa - - - -
1787755803 15° C 99% 0 hPa - - - -
1787754003 14.44° C 100% 0 hPa - - - -

* Rain since midnight (hover to see other rain measurements)
** Current wind speed in m/s (hover to see current wind gust speed)